Killeen-Fort Hood Regional, TX

3:59 AM CDT on July 30, 2016 (GMT -0500)
Fort Hood | | Change Station

Elev 1014 ft 31.07 °N, 97.83 °W | Updated 1 minute ago

Mostly Cloudy
Mostly Cloudy
78 °F
Feels Like 78 °F
N
6
Wind Variable Wind from SSE

Today
High -- | Low -- °F
--% Chance of Precip.
Yesterday
High -- | Low -- °F
Precip. -- in
Pressure 29.98 in
Visibility 10.0 miles
Clouds Mostly Cloudy 21000 ft
Dew Point 71 °F
Humidity 81%
Rainfall 0.00 in
Snow Depth Not available.
6:47 AM 8:27 PM
Waning Crescent, 15% visible
METAR KGRK 300858Z AUTO 16005KT 10SM BKN210 25/22 A3001 RMK AO2 SLP150 T02540219 58001
Pressure 29.98 in
Visibility 10.0 miles
Clouds Mostly Cloudy 21000 ft
Dew Point 71 °F
Humidity 81%
Rainfall 0.00 in
Snow Depth Not available.
6:47 AM 8:27 PM
Waning Crescent, 15% visible
METAR KGRK 300858Z AUTO 16005KT 10SM BKN210 25/22 A3001 RMK AO2 SLP150 T02540219 58001

10-Day Weather Forecast

Almanac

Astronomy

Jul. 30, 2016 Rise Set
Actual Time
Civil Twilight
Nautical Twilight
Astronomical Twilight
Moon
Length of Visible Light
Length of Day
Tomorrow will be .
, % of the Moon is Illuminated

Today's Extremes

State Highs State Lows

Community

WunderPhotos

Upload Photos

1,928,508 photos uploaded!

WunderBlog® & News

Nearby

Air Quality

  Air Quality AQ Index Pollutant
Not available.

Snow Depth

Station Depth Elevation

Earthquake Activity

City Distance Mag. Time & Date
Minimum magnitude displayed is 2.5.

Coastal Water Temperatures

Place Temperature

Stations

Nearby Weather Stations

Station Location Temp. Windchill Dew Point Humidity Wind Precip. Elev Updated Type
                   

Watches & Warnings

There are currently no watches in effect.